sensor_id;sensor_type;location;lat;lon;timestamp;P1;durP1;ratioP1;P2;durP2;ratioP2
24567;SDS011;12731;52.182;8.716;2022-08-07T00:01:14;5.18;;;2.65;;
24567;SDS011;12731;52.182;8.716;2022-08-07T00:04:04;3.15;;;2.78;;
24567;SDS011;12731;52.182;8.716;2022-08-07T00:06:34;4.32;;;2.92;;
24567;SDS011;12731;52.182;8.716;2022-08-07T00:09:06;3.78;;;2.70;;
24567;SDS011;12731;52.182;8.716;2022-08-07T00:11:46;4.60;;;2.58;;
24567;SDS011;12731;52.182;8.716;2022-08-07T00:14:24;5.03;;;2.58;;
24567;SDS011;12731;52.182;8.716;2022-08-07T00:16:56;3.83;;;2.92;;
24567;SDS011;12731;52.182;8.716;2022-08-07T00:19:27;4.47;;;3.00;;
24567;SDS011;12731;52.182;8.716;2022-08-07T00:22:13;4.80;;;3.10;;
24567;SDS011;12731;52.182;8.716;2022-08-07T00:24:59;6.10;;;3.42;;
24567;SDS011;12731;52.182;8.716;2022-08-07T00:27:27;4.38;;;3.08;;
24567;SDS011;12731;52.182;8.716;2022-08-07T00:30:14;3.92;;;3.17;;
24567;SDS011;12731;52.182;8.716;2022-08-07T00:32:56;4.90;;;3.35;;
24567;SDS011;12731;52.182;8.716;2022-08-07T00:35:24;4.40;;;3.40;;
24567;SDS011;12731;52.182;8.716;2022-08-07T00:37:51;5.35;;;4.32;;
24567;SDS011;12731;52.182;8.716;2022-08-07T00:40:18;5.28;;;4.15;;
24567;SDS011;12731;52.182;8.716;2022-08-07T00:43:04;6.70;;;4.72;;
24567;SDS011;12731;52.182;8.716;2022-08-07T00:45:35;6.22;;;4.05;;
24567;SDS011;12731;52.182;8.716;2022-08-07T00:48:02;4.57;;;4.03;;
24567;SDS011;12731;52.182;8.716;2022-08-07T00:50:36;5.80;;;4.57;;
24567;SDS011;12731;52.182;8.716;2022-08-07T00:53:16;5.90;;;4.10;;
24567;SDS011;12731;52.182;8.716;2022-08-07T00:55:45;6.10;;;4.38;;
24567;SDS011;12731;52.182;8.716;2022-08-07T00:58:28;5.82;;;4.10;;
24567;SDS011;12731;52.182;8.716;2022-08-07T01:00:55;5.57;;;4.38;;
24567;SDS011;12731;52.182;8.716;2022-08-07T01:03:21;7.22;;;4.15;;
24567;SDS011;12731;52.182;8.716;2022-08-07T01:06:08;5.85;;;4.00;;
24567;SDS011;12731;52.182;8.716;2022-08-07T01:08:38;6.15;;;4.00;;
24567;SDS011;12731;52.182;8.716;2022-08-07T01:11:16;4.75;;;4.00;;
24567;SDS011;12731;52.182;8.716;2022-08-07T01:14:03;8.85;;;4.65;;
24567;SDS011;12731;52.182;8.716;2022-08-07T01:16:30;4.75;;;3.80;;
24567;SDS011;12731;52.182;8.716;2022-08-07T01:18:57;5.57;;;3.92;;
24567;SDS011;12731;52.182;8.716;2022-08-07T01:21:24;6.85;;;4.43;;
24567;SDS011;12731;52.182;8.716;2022-08-07T01:23:52;5.10;;;4.43;;
24567;SDS011;12731;52.182;8.716;2022-08-07T01:26:20;5.10;;;4.38;;
24567;SDS011;12731;52.182;8.716;2022-08-07T01:28:51;4.97;;;4.35;;
24567;SDS011;12731;52.182;8.716;2022-08-07T01:31:19;5.78;;;4.50;;
24567;SDS011;12731;52.182;8.716;2022-08-07T01:33:46;6.35;;;4.60;;
24567;SDS011;12731;52.182;8.716;2022-08-07T01:36:22;5.70;;;4.53;;
24567;SDS011;12731;52.182;8.716;2022-08-07T01:39:01;6.93;;;5.10;;
24567;SDS011;12731;52.182;8.716;2022-08-07T01:41:35;5.72;;;4.55;;
24567;SDS011;12731;52.182;8.716;2022-08-07T01:44:06;5.57;;;4.90;;
24567;SDS011;12731;52.182;8.716;2022-08-07T01:46:32;6.82;;;4.82;;
24567;SDS011;12731;52.182;8.716;2022-08-07T01:49:00;5.85;;;5.20;;
24567;SDS011;12731;52.182;8.716;2022-08-07T01:51:27;7.00;;;5.30;;
24567;SDS011;12731;52.182;8.716;2022-08-07T01:54:14;5.35;;;4.53;;
24567;SDS011;12731;52.182;8.716;2022-08-07T01:57:02;6.43;;;4.85;;
24567;SDS011;12731;52.182;8.716;2022-08-07T01:59:59;6.38;;;5.18;;
24567;SDS011;12731;52.182;8.716;2022-08-07T02:02:35;7.90;;;5.25;;
24567;SDS011;12731;52.182;8.716;2022-08-07T02:05:26;8.52;;;5.07;;
24567;SDS011;12731;52.182;8.716;2022-08-07T02:08:19;6.20;;;4.93;;
24567;SDS011;12731;52.182;8.716;2022-08-07T02:10:49;7.78;;;4.90;;
24567;SDS011;12731;52.182;8.716;2022-08-07T02:13:24;5.47;;;4.78;;
24567;SDS011;12731;52.182;8.716;2022-08-07T02:16:12;6.68;;;5.40;;
24567;SDS011;12731;52.182;8.716;2022-08-07T02:18:41;5.68;;;4.97;;
24567;SDS011;12731;52.182;8.716;2022-08-07T02:21:12;7.13;;;5.47;;
24567;SDS011;12731;52.182;8.716;2022-08-07T02:23:41;7.70;;;5.75;;
24567;SDS011;12731;52.182;8.716;2022-08-07T02:26:09;8.27;;;6.18;;
24567;SDS011;12731;52.182;8.716;2022-08-07T02:28:56;7.10;;;5.35;;
24567;SDS011;12731;52.182;8.716;2022-08-07T02:31:25;6.78;;;5.60;;
24567;SDS011;12731;52.182;8.716;2022-08-07T02:33:54;6.45;;;5.10;;
24567;SDS011;12731;52.182;8.716;2022-08-07T02:36:36;6.70;;;5.70;;
24567;SDS011;12731;52.182;8.716;2022-08-07T02:39:03;8.60;;;5.50;;
24567;SDS011;12731;52.182;8.716;2022-08-07T02:41:43;6.63;;;5.55;;
24567;SDS011;12731;52.182;8.716;2022-08-07T02:44:19;7.88;;;6.32;;
24567;SDS011;12731;52.182;8.716;2022-08-07T02:46:47;7.55;;;6.18;;
24567;SDS011;12731;52.182;8.716;2022-08-07T02:49:18;7.00;;;6.05;;
24567;SDS011;12731;52.182;8.716;2022-08-07T02:52:04;7.05;;;5.82;;
24567;SDS011;12731;52.182;8.716;2022-08-07T02:54:38;7.18;;;6.28;;
24567;SDS011;12731;52.182;8.716;2022-08-07T02:57:07;7.30;;;5.47;;
24567;SDS011;12731;52.182;8.716;2022-08-07T02:59:40;7.30;;;6.00;;
24567;SDS011;12731;52.182;8.716;2022-08-07T03:02:20;7.80;;;6.30;;
24567;SDS011;12731;52.182;8.716;2022-08-07T03:04:47;8.07;;;5.93;;
24567;SDS011;12731;52.182;8.716;2022-08-07T03:07:14;7.63;;;6.13;;
24567;SDS011;12731;52.182;8.716;2022-08-07T03:09:46;7.80;;;6.07;;
24567;SDS011;12731;52.182;8.716;2022-08-07T03:12:17;9.13;;;6.28;;
24567;SDS011;12731;52.182;8.716;2022-08-07T03:14:49;7.72;;;5.95;;
24567;SDS011;12731;52.182;8.716;2022-08-07T03:17:17;8.30;;;6.00;;
24567;SDS011;12731;52.182;8.716;2022-08-07T03:19:47;7.13;;;5.50;;
24567;SDS011;12731;52.182;8.716;2022-08-07T03:22:21;8.43;;;5.88;;
24567;SDS011;12731;52.182;8.716;2022-08-07T03:24:54;8.00;;;5.80;;
24567;SDS011;12731;52.182;8.716;2022-08-07T03:27:22;7.50;;;5.43;;
24567;SDS011;12731;52.182;8.716;2022-08-07T03:30:08;7.22;;;5.82;;
24567;SDS011;12731;52.182;8.716;2022-08-07T03:32:38;8.00;;;6.18;;
24567;SDS011;12731;52.182;8.716;2022-08-07T03:35:24;7.50;;;6.00;;
24567;SDS011;12731;52.182;8.716;2022-08-07T03:37:56;6.90;;;5.97;;
24567;SDS011;12731;52.182;8.716;2022-08-07T03:40:29;7.72;;;5.88;;
24567;SDS011;12731;52.182;8.716;2022-08-07T03:43:02;10.05;;;5.90;;
24567;SDS011;12731;52.182;8.716;2022-08-07T03:45:35;7.95;;;6.18;;
24567;SDS011;12731;52.182;8.716;2022-08-07T03:48:08;7.85;;;6.07;;
24567;SDS011;12731;52.182;8.716;2022-08-07T03:50:36;7.57;;;6.50;;
24567;SDS011;12731;52.182;8.716;2022-08-07T03:53:03;8.50;;;5.85;;
24567;SDS011;12731;52.182;8.716;2022-08-07T03:55:32;7.97;;;6.15;;
24567;SDS011;12731;52.182;8.716;2022-08-07T03:58:19;9.50;;;5.97;;
24567;SDS011;12731;52.182;8.716;2022-08-07T04:01:07;8.73;;;6.20;;
24567;SDS011;12731;52.182;8.716;2022-08-07T04:03:36;8.57;;;6.75;;
24567;SDS011;12731;52.182;8.716;2022-08-07T04:06:18;9.30;;;6.68;;
24567;SDS011;12731;52.182;8.716;2022-08-07T04:09:04;7.25;;;6.00;;
24567;SDS011;12731;52.182;8.716;2022-08-07T04:11:31;6.72;;;5.78;;
24567;SDS011;12731;52.182;8.716;2022-08-07T04:14:18;10.18;;;6.72;;
24567;SDS011;12731;52.182;8.716;2022-08-07T04:17:05;9.88;;;6.70;;
24567;SDS011;12731;52.182;8.716;2022-08-07T04:19:52;8.75;;;5.78;;
24567;SDS011;12731;52.182;8.716;2022-08-07T04:22:23;7.22;;;6.13;;
24567;SDS011;12731;52.182;8.716;2022-08-07T04:24:54;8.48;;;5.88;;
24567;SDS011;12731;52.182;8.716;2022-08-07T04:27:23;9.57;;;6.45;;
24567;SDS011;12731;52.182;8.716;2022-08-07T04:29:51;10.88;;;5.97;;
24567;SDS011;12731;52.182;8.716;2022-08-07T04:32:27;8.25;;;6.57;;
24567;SDS011;12731;52.182;8.716;2022-08-07T04:35:01;7.35;;;6.60;;
24567;SDS011;12731;52.182;8.716;2022-08-07T04:37:31;8.80;;;6.22;;
24567;SDS011;12731;52.182;8.716;2022-08-07T04:40:18;7.80;;;5.97;;
24567;SDS011;12731;52.182;8.716;2022-08-07T04:42:45;9.90;;;6.53;;
24567;SDS011;12731;52.182;8.716;2022-08-07T04:45:17;7.30;;;6.03;;
24567;SDS011;12731;52.182;8.716;2022-08-07T04:48:06;7.68;;;6.40;;
24567;SDS011;12731;52.182;8.716;2022-08-07T04:50:37;7.35;;;5.80;;
24567;SDS011;12731;52.182;8.716;2022-08-07T04:53:17;8.70;;;6.15;;
24567;SDS011;12731;52.182;8.716;2022-08-07T04:56:12;7.10;;;5.60;;
24567;SDS011;12731;52.182;8.716;2022-08-07T04:59:09;7.75;;;5.63;;
24567;SDS011;12731;52.182;8.716;2022-08-07T05:02:06;7.68;;;6.05;;
24567;SDS011;12731;52.182;8.716;2022-08-07T05:04:48;6.72;;;6.03;;
24567;SDS011;12731;52.182;8.716;2022-08-07T05:07:21;8.50;;;6.18;;
24567;SDS011;12731;52.182;8.716;2022-08-07T05:15:21;8.25;;;5.75;;
24567;SDS011;12731;52.182;8.716;2022-08-07T05:18:00;9.38;;;6.30;;
24567;SDS011;12731;52.182;8.716;2022-08-07T05:20:37;6.78;;;6.07;;
24567;SDS011;12731;52.182;8.716;2022-08-07T05:23:21;9.15;;;5.75;;
24567;SDS011;12731;52.182;8.716;2022-08-07T05:25:55;7.43;;;6.10;;
24567;SDS011;12731;52.182;8.716;2022-08-07T05:28:42;8.60;;;6.35;;
24567;SDS011;12731;52.182;8.716;2022-08-07T05:31:15;8.15;;;6.05;;
24567;SDS011;12731;52.182;8.716;2022-08-07T05:33:45;8.32;;;6.45;;
24567;SDS011;12731;52.182;8.716;2022-08-07T05:36:30;8.35;;;5.80;;
24567;SDS011;12731;52.182;8.716;2022-08-07T05:39:01;8.32;;;6.00;;
24567;SDS011;12731;52.182;8.716;2022-08-07T05:41:47;6.55;;;5.50;;
24567;SDS011;12731;52.182;8.716;2022-08-07T05:44:27;8.80;;;5.65;;
24567;SDS011;12731;52.182;8.716;2022-08-07T05:46:55;7.53;;;5.28;;
24567;SDS011;12731;52.182;8.716;2022-08-07T05:49:25;7.68;;;5.60;;
24567;SDS011;12731;52.182;8.716;2022-08-07T05:52:05;6.90;;;5.30;;
24567;SDS011;12731;52.182;8.716;2022-08-07T05:54:32;7.43;;;5.55;;
24567;SDS011;12731;52.182;8.716;2022-08-07T05:57:18;6.47;;;5.32;;
24567;SDS011;12731;52.182;8.716;2022-08-07T05:59:46;7.85;;;6.35;;
24567;SDS011;12731;52.182;8.716;2022-08-07T06:02:23;7.43;;;5.40;;
24567;SDS011;12731;52.182;8.716;2022-08-07T06:04:55;7.07;;;5.80;;
24567;SDS011;12731;52.182;8.716;2022-08-07T06:07:24;7.72;;;5.88;;
24567;SDS011;12731;52.182;8.716;2022-08-07T06:10:10;7.38;;;5.80;;
24567;SDS011;12731;52.182;8.716;2022-08-07T06:12:40;5.78;;;5.10;;
24567;SDS011;12731;52.182;8.716;2022-08-07T06:15:07;7.63;;;5.57;;
24567;SDS011;12731;52.182;8.716;2022-08-07T06:17:41;7.00;;;5.65;;
24567;SDS011;12731;52.182;8.716;2022-08-07T06:20:20;6.57;;;5.18;;
24567;SDS011;12731;52.182;8.716;2022-08-07T06:22:56;5.57;;;4.97;;
24567;SDS011;12731;52.182;8.716;2022-08-07T06:25:44;5.60;;;5.03;;
24567;SDS011;12731;52.182;8.716;2022-08-07T06:28:22;6.60;;;4.85;;
24567;SDS011;12731;52.182;8.716;2022-08-07T06:30:53;6.18;;;5.05;;
24567;SDS011;12731;52.182;8.716;2022-08-07T06:33:20;5.82;;;4.88;;
24567;SDS011;12731;52.182;8.716;2022-08-07T06:35:48;5.05;;;4.55;;
24567;SDS011;12731;52.182;8.716;2022-08-07T06:38:34;5.30;;;4.80;;
24567;SDS011;12731;52.182;8.716;2022-08-07T06:41:00;5.18;;;4.65;;
24567;SDS011;12731;52.182;8.716;2022-08-07T06:43:32;5.70;;;4.60;;
24567;SDS011;12731;52.182;8.716;2022-08-07T06:46:05;7.97;;;4.97;;
24567;SDS011;12731;52.182;8.716;2022-08-07T06:48:37;5.95;;;4.50;;
24567;SDS011;12731;52.182;8.716;2022-08-07T06:51:12;5.78;;;4.70;;
24567;SDS011;12731;52.182;8.716;2022-08-07T06:53:40;5.68;;;4.65;;
24567;SDS011;12731;52.182;8.716;2022-08-07T06:56:27;5.32;;;4.53;;
24567;SDS011;12731;52.182;8.716;2022-08-07T06:59:16;6.15;;;4.65;;
24567;SDS011;12731;52.182;8.716;2022-08-07T07:02:06;5.45;;;4.65;;
24567;SDS011;12731;52.182;8.716;2022-08-07T07:04:36;6.88;;;5.03;;
24567;SDS011;12731;52.182;8.716;2022-08-07T07:07:08;6.63;;;4.68;;
24567;SDS011;12731;52.182;8.716;2022-08-07T07:09:55;7.10;;;4.47;;
24567;SDS011;12731;52.182;8.716;2022-08-07T07:12:39;6.18;;;4.38;;
24567;SDS011;12731;52.182;8.716;2022-08-07T07:15:18;4.75;;;4.22;;
24567;SDS011;12731;52.182;8.716;2022-08-07T07:20:59;6.80;;;4.30;;
24567;SDS011;12731;52.182;8.716;2022-08-07T07:23:29;5.03;;;3.90;;
24567;SDS011;12731;52.182;8.716;2022-08-07T07:26:16;5.40;;;3.88;;
24567;SDS011;12731;52.182;8.716;2022-08-07T07:29:03;6.07;;;4.07;;
24567;SDS011;12731;52.182;8.716;2022-08-07T07:31:53;4.63;;;3.72;;
24567;SDS011;12731;52.182;8.716;2022-08-07T07:34:22;5.53;;;3.78;;
24567;SDS011;12731;52.182;8.716;2022-08-07T07:36:56;7.03;;;4.10;;
24567;SDS011;12731;52.182;8.716;2022-08-07T07:39:44;4.97;;;4.47;;
24567;SDS011;12731;52.182;8.716;2022-08-07T07:42:19;7.45;;;4.60;;
24567;SDS011;12731;52.182;8.716;2022-08-07T07:44:58;4.38;;;3.80;;
24567;SDS011;12731;52.182;8.716;2022-08-07T07:47:27;5.60;;;3.80;;
24567;SDS011;12731;52.182;8.716;2022-08-07T07:49:54;7.97;;;4.18;;
24567;SDS011;12731;52.182;8.716;2022-08-07T07:52:43;6.30;;;3.70;;
24567;SDS011;12731;52.182;8.716;2022-08-07T07:55:12;4.28;;;3.72;;
24567;SDS011;12731;52.182;8.716;2022-08-07T07:57:40;4.65;;;3.72;;
24567;SDS011;12731;52.182;8.716;2022-08-07T08:00:18;5.85;;;3.25;;
24567;SDS011;12731;52.182;8.716;2022-08-07T08:02:55;4.25;;;3.80;;
24567;SDS011;12731;52.182;8.716;2022-08-07T08:05:33;5.35;;;3.55;;
24567;SDS011;12731;52.182;8.716;2022-08-07T08:08:15;4.22;;;3.10;;
24567;SDS011;12731;52.182;8.716;2022-08-07T08:11:05;3.38;;;3.08;;
24567;SDS011;12731;52.182;8.716;2022-08-07T08:13:42;4.18;;;2.70;;
24567;SDS011;12731;52.182;8.716;2022-08-07T08:16:21;4.97;;;3.17;;
24567;SDS011;12731;52.182;8.716;2022-08-07T08:18:55;5.57;;;2.83;;
24567;SDS011;12731;52.182;8.716;2022-08-07T08:21:22;4.00;;;3.00;;
24567;SDS011;12731;52.182;8.716;2022-08-07T08:24:28;3.85;;;3.00;;
24567;SDS011;12731;52.182;8.716;2022-08-07T08:27:33;3.83;;;2.63;;
24567;SDS011;12731;52.182;8.716;2022-08-07T08:30:03;3.53;;;2.80;;
24567;SDS011;12731;52.182;8.716;2022-08-07T08:32:38;4.28;;;2.25;;
24567;SDS011;12731;52.182;8.716;2022-08-07T08:35:11;3.03;;;2.10;;
24567;SDS011;12731;52.182;8.716;2022-08-07T08:37:42;3.10;;;2.50;;
24567;SDS011;12731;52.182;8.716;2022-08-07T08:40:31;2.33;;;1.88;;
24567;SDS011;12731;52.182;8.716;2022-08-07T08:45:37;3.13;;;1.85;;
24567;SDS011;12731;52.182;8.716;2022-08-07T08:51:31;5.70;;;2.72;;
24567;SDS011;12731;52.182;8.716;2022-08-07T08:54:31;1.70;;;1.50;;
24567;SDS011;12731;52.182;8.716;2022-08-07T08:57:01;2.38;;;1.10;;
24567;SDS011;12731;52.182;8.716;2022-08-07T09:05:11;2.38;;;0.90;;
24567;SDS011;12731;52.182;8.716;2022-08-07T09:07:44;1.40;;;0.90;;
24567;SDS011;12731;52.182;8.716;2022-08-07T09:10:36;1.40;;;0.85;;
24567;SDS011;12731;52.182;8.716;2022-08-07T09:16:04;1.40;;;0.80;;
24567;SDS011;12731;52.182;8.716;2022-08-07T09:18:58;1.00;;;0.90;;
24567;SDS011;12731;52.182;8.716;2022-08-07T09:22:09;3.22;;;0.93;;
24567;SDS011;12731;52.182;8.716;2022-08-07T09:25:13;2.40;;;0.70;;
24567;SDS011;12731;52.182;8.716;2022-08-07T09:30:28;1.13;;;0.93;;
24567;SDS011;12731;52.182;8.716;2022-08-07T09:35:43;2.10;;;0.90;;
24567;SDS011;12731;52.182;8.716;2022-08-07T09:38:43;1.88;;;1.15;;
24567;SDS011;12731;52.182;8.716;2022-08-07T09:41:29;2.38;;;1.00;;
24567;SDS011;12731;52.182;8.716;2022-08-07T09:44:18;1.80;;;1.05;;
24567;SDS011;12731;52.182;8.716;2022-08-07T09:47:30;3.25;;;1.17;;
24567;SDS011;12731;52.182;8.716;2022-08-07T09:50:24;3.85;;;1.27;;
24567;SDS011;12731;52.182;8.716;2022-08-07T09:53:06;1.65;;;1.00;;
24567;SDS011;12731;52.182;8.716;2022-08-07T10:01:31;1.63;;;0.65;;
24567;SDS011;12731;52.182;8.716;2022-08-07T10:05:02;0.93;;;0.80;;
24567;SDS011;12731;52.182;8.716;2022-08-07T10:19:58;2.38;;;0.80;;
24567;SDS011;12731;52.182;8.716;2022-08-07T10:28:29;1.83;;;0.80;;
24567;SDS011;12731;52.182;8.716;2022-08-07T10:37:09;1.02;;;0.88;;
24567;SDS011;12731;52.182;8.716;2022-08-07T10:40:10;2.90;;;0.85;;
24567;SDS011;12731;52.182;8.716;2022-08-07T10:42:45;1.02;;;0.90;;
24567;SDS011;12731;52.182;8.716;2022-08-07T10:45:32;1.48;;;0.80;;
24567;SDS011;12731;52.182;8.716;2022-08-07T10:48:25;1.92;;;1.08;;
24567;SDS011;12731;52.182;8.716;2022-08-07T10:51:11;1.40;;;0.80;;
24567;SDS011;12731;52.182;8.716;2022-08-07T10:57:38;1.70;;;0.73;;
24567;SDS011;12731;52.182;8.716;2022-08-07T11:00:21;1.58;;;0.80;;
24567;SDS011;12731;52.182;8.716;2022-08-07T11:05:54;1.42;;;0.60;;
24567;SDS011;12731;52.182;8.716;2022-08-07T11:11:26;2.67;;;0.80;;
24567;SDS011;12731;52.182;8.716;2022-08-07T11:14:13;5.55;;;0.88;;
24567;SDS011;12731;52.182;8.716;2022-08-07T11:17:08;2.05;;;0.85;;
24567;SDS011;12731;52.182;8.716;2022-08-07T11:22:26;2.17;;;0.95;;
24567;SDS011;12731;52.182;8.716;2022-08-07T11:28:16;1.88;;;0.80;;
24567;SDS011;12731;52.182;8.716;2022-08-07T11:33:22;1.48;;;0.90;;
24567;SDS011;12731;52.182;8.716;2022-08-07T11:36:17;1.13;;;0.90;;
24567;SDS011;12731;52.182;8.716;2022-08-07T11:41:50;1.30;;;0.85;;
24567;SDS011;12731;52.182;8.716;2022-08-07T11:50:48;1.15;;;0.90;;
24567;SDS011;12731;52.182;8.716;2022-08-07T12:02:50;1.38;;;0.80;;
24567;SDS011;12731;52.182;8.716;2022-08-07T12:05:27;1.25;;;0.75;;
24567;SDS011;12731;52.182;8.716;2022-08-07T12:08:22;0.70;;;0.70;;
24567;SDS011;12731;52.182;8.716;2022-08-07T12:11:02;1.23;;;0.90;;
24567;SDS011;12731;52.182;8.716;2022-08-07T12:13:49;1.95;;;0.90;;
24567;SDS011;12731;52.182;8.716;2022-08-07T12:16:30;1.13;;;0.70;;
24567;SDS011;12731;52.182;8.716;2022-08-07T12:19:04;2.78;;;1.08;;
24567;SDS011;12731;52.182;8.716;2022-08-07T12:21:51;1.27;;;0.70;;
24567;SDS011;12731;52.182;8.716;2022-08-07T12:25:02;1.92;;;0.90;;
24567;SDS011;12731;52.182;8.716;2022-08-07T12:28:33;1.75;;;0.90;;
24567;SDS011;12731;52.182;8.716;2022-08-07T12:31:04;1.75;;;0.90;;
24567;SDS011;12731;52.182;8.716;2022-08-07T12:33:34;1.13;;;0.70;;
24567;SDS011;12731;52.182;8.716;2022-08-07T12:36:21;2.08;;;0.73;;
24567;SDS011;12731;52.182;8.716;2022-08-07T12:39:00;1.40;;;0.70;;
24567;SDS011;12731;52.182;8.716;2022-08-07T12:41:49;1.70;;;0.70;;
24567;SDS011;12731;52.182;8.716;2022-08-07T12:44:17;1.30;;;0.70;;
24567;SDS011;12731;52.182;8.716;2022-08-07T12:47:02;1.35;;;0.77;;
24567;SDS011;12731;52.182;8.716;2022-08-07T12:49:39;1.65;;;0.70;;
24567;SDS011;12731;52.182;8.716;2022-08-07T12:52:20;1.83;;;0.90;;
24567;SDS011;12731;52.182;8.716;2022-08-07T12:57:43;0.75;;;0.63;;
24567;SDS011;12731;52.182;8.716;2022-08-07T13:00:33;1.40;;;0.80;;
24567;SDS011;12731;52.182;8.716;2022-08-07T13:03:25;1.30;;;0.75;;
24567;SDS011;12731;52.182;8.716;2022-08-07T13:15:31;1.00;;;0.90;;
24567;SDS011;12731;52.182;8.716;2022-08-07T13:21:01;1.20;;;0.90;;
24567;SDS011;12731;52.182;8.716;2022-08-07T13:23:41;1.40;;;0.82;;
24567;SDS011;12731;52.182;8.716;2022-08-07T13:26:31;3.75;;;1.38;;
24567;SDS011;12731;52.182;8.716;2022-08-07T13:29:22;1.05;;;0.90;;
24567;SDS011;12731;52.182;8.716;2022-08-07T13:32:04;1.13;;;0.82;;
24567;SDS011;12731;52.182;8.716;2022-08-07T13:35:00;1.95;;;0.80;;
24567;SDS011;12731;52.182;8.716;2022-08-07T13:40:28;1.17;;;0.80;;
24567;SDS011;12731;52.182;8.716;2022-08-07T13:43:09;0.73;;;0.73;;
24567;SDS011;12731;52.182;8.716;2022-08-07T13:45:39;1.63;;;0.90;;
24567;SDS011;12731;52.182;8.716;2022-08-07T13:48:27;1.15;;;0.80;;
24567;SDS011;12731;52.182;8.716;2022-08-07T13:50:59;1.67;;;0.73;;
24567;SDS011;12731;52.182;8.716;2022-08-07T13:53:54;1.70;;;1.00;;
24567;SDS011;12731;52.182;8.716;2022-08-07T13:56:27;2.55;;;0.77;;
24567;SDS011;12731;52.182;8.716;2022-08-07T13:59:27;2.72;;;1.05;;
24567;SDS011;12731;52.182;8.716;2022-08-07T14:02:01;2.13;;;0.80;;
24567;SDS011;12731;52.182;8.716;2022-08-07T14:04:46;1.30;;;0.90;;
24567;SDS011;12731;52.182;8.716;2022-08-07T14:07:21;1.58;;;1.10;;
24567;SDS011;12731;52.182;8.716;2022-08-07T14:09:56;3.40;;;1.10;;
24567;SDS011;12731;52.182;8.716;2022-08-07T14:12:47;1.17;;;0.90;;
24567;SDS011;12731;52.182;8.716;2022-08-07T14:15:25;1.55;;;0.90;;
24567;SDS011;12731;52.182;8.716;2022-08-07T14:20:59;1.38;;;0.90;;
24567;SDS011;12731;52.182;8.716;2022-08-07T14:23:37;1.40;;;0.95;;
24567;SDS011;12731;52.182;8.716;2022-08-07T14:26:37;1.60;;;0.90;;
24567;SDS011;12731;52.182;8.716;2022-08-07T14:29:17;2.20;;;1.00;;
24567;SDS011;12731;52.182;8.716;2022-08-07T14:32:05;1.92;;;0.90;;
24567;SDS011;12731;52.182;8.716;2022-08-07T14:34:36;1.17;;;0.93;;
24567;SDS011;12731;52.182;8.716;2022-08-07T14:37:12;1.50;;;1.00;;
24567;SDS011;12731;52.182;8.716;2022-08-07T14:39:43;1.98;;;1.02;;
24567;SDS011;12731;52.182;8.716;2022-08-07T14:42:33;2.97;;;1.05;;
24567;SDS011;12731;52.182;8.716;2022-08-07T14:45:20;2.17;;;0.90;;
24567;SDS011;12731;52.182;8.716;2022-08-07T14:48:10;2.75;;;1.02;;
24567;SDS011;12731;52.182;8.716;2022-08-07T14:50:46;1.92;;;0.82;;
24567;SDS011;12731;52.182;8.716;2022-08-07T14:53:16;1.60;;;1.08;;
24567;SDS011;12731;52.182;8.716;2022-08-07T14:56:05;2.65;;;0.90;;
24567;SDS011;12731;52.182;8.716;2022-08-07T14:58:39;2.40;;;0.93;;
24567;SDS011;12731;52.182;8.716;2022-08-07T15:01:09;1.20;;;1.00;;
24567;SDS011;12731;52.182;8.716;2022-08-07T15:03:47;2.25;;;0.90;;
24567;SDS011;12731;52.182;8.716;2022-08-07T15:06:20;1.23;;;0.80;;
24567;SDS011;12731;52.182;8.716;2022-08-07T15:08:50;1.55;;;0.90;;
24567;SDS011;12731;52.182;8.716;2022-08-07T15:11:52;0.88;;;0.80;;
24567;SDS011;12731;52.182;8.716;2022-08-07T15:14:44;4.50;;;1.00;;
24567;SDS011;12731;52.182;8.716;2022-08-07T15:17:24;2.30;;;1.05;;
24567;SDS011;12731;52.182;8.716;2022-08-07T15:20:17;2.40;;;1.15;;
24567;SDS011;12731;52.182;8.716;2022-08-07T15:23:00;1.33;;;0.80;;
24567;SDS011;12731;52.182;8.716;2022-08-07T15:25:52;1.13;;;0.90;;
24567;SDS011;12731;52.182;8.716;2022-08-07T15:28:20;1.95;;;1.10;;
24567;SDS011;12731;52.182;8.716;2022-08-07T15:31:09;1.08;;;0.93;;
24567;SDS011;12731;52.182;8.716;2022-08-07T15:33:58;1.17;;;0.93;;
24567;SDS011;12731;52.182;8.716;2022-08-07T15:36:26;2.15;;;1.25;;
24567;SDS011;12731;52.182;8.716;2022-08-07T15:39:13;2.20;;;1.10;;
24567;SDS011;12731;52.182;8.716;2022-08-07T15:42:04;1.10;;;0.85;;
24567;SDS011;12731;52.182;8.716;2022-08-07T15:44:47;2.00;;;1.10;;
24567;SDS011;12731;52.182;8.716;2022-08-07T15:47:17;3.33;;;1.10;;
24567;SDS011;12731;52.182;8.716;2022-08-07T15:49:45;2.10;;;1.13;;
24567;SDS011;12731;52.182;8.716;2022-08-07T15:52:35;2.20;;;1.42;;
24567;SDS011;12731;52.182;8.716;2022-08-07T15:55:05;1.25;;;1.15;;
24567;SDS011;12731;52.182;8.716;2022-08-07T15:57:36;2.45;;;1.30;;
24567;SDS011;12731;52.182;8.716;2022-08-07T16:00:14;2.58;;;1.50;;
24567;SDS011;12731;52.182;8.716;2022-08-07T16:03:00;3.67;;;1.40;;
24567;SDS011;12731;52.182;8.716;2022-08-07T16:05:28;3.30;;;1.40;;
24567;SDS011;12731;52.182;8.716;2022-08-07T16:08:07;1.70;;;1.20;;
24567;SDS011;12731;52.182;8.716;2022-08-07T16:11:01;1.45;;;1.27;;
24567;SDS011;12731;52.182;8.716;2022-08-07T16:13:53;2.00;;;1.15;;
24567;SDS011;12731;52.182;8.716;2022-08-07T16:16:47;6.68;;;5.18;;
24567;SDS011;12731;52.182;8.716;2022-08-07T16:25:38;2.08;;;1.50;;
24567;SDS011;12731;52.182;8.716;2022-08-07T16:31:47;2.50;;;1.52;;
24567;SDS011;12731;52.182;8.716;2022-08-07T16:34:43;4.60;;;1.67;;
24567;SDS011;12731;52.182;8.716;2022-08-07T16:51:45;1.85;;;1.40;;
24567;SDS011;12731;52.182;8.716;2022-08-07T17:01:15;2.70;;;1.20;;
24567;SDS011;12731;52.182;8.716;2022-08-07T17:04:10;2.35;;;1.40;;
24567;SDS011;12731;52.182;8.716;2022-08-07T17:12:27;2.40;;;1.55;;
24567;SDS011;12731;52.182;8.716;2022-08-07T17:15:30;2.38;;;1.52;;
24567;SDS011;12731;52.182;8.716;2022-08-07T17:18:18;1.60;;;1.50;;
24567;SDS011;12731;52.182;8.716;2022-08-07T17:20:51;2.72;;;1.70;;
24567;SDS011;12731;52.182;8.716;2022-08-07T17:29:08;1.70;;;1.60;;
24567;SDS011;12731;52.182;8.716;2022-08-07T17:32:10;1.67;;;1.50;;
24567;SDS011;12731;52.182;8.716;2022-08-07T17:35:03;2.90;;;1.40;;
24567;SDS011;12731;52.182;8.716;2022-08-07T17:38:00;1.52;;;1.40;;
24567;SDS011;12731;52.182;8.716;2022-08-07T17:40:39;1.67;;;1.40;;
24567;SDS011;12731;52.182;8.716;2022-08-07T17:43:17;1.85;;;1.50;;
24567;SDS011;12731;52.182;8.716;2022-08-07T17:48:38;1.83;;;1.60;;
24567;SDS011;12731;52.182;8.716;2022-08-07T17:51:17;2.75;;;1.70;;
24567;SDS011;12731;52.182;8.716;2022-08-07T17:53:56;2.08;;;1.88;;
24567;SDS011;12731;52.182;8.716;2022-08-07T17:57:10;1.70;;;1.60;;
24567;SDS011;12731;52.182;8.716;2022-08-07T17:59:46;2.20;;;1.90;;
24567;SDS011;12731;52.182;8.716;2022-08-07T18:02:27;2.77;;;1.67;;
24567;SDS011;12731;52.182;8.716;2022-08-07T18:05:07;2.25;;;1.50;;
24567;SDS011;12731;52.182;8.716;2022-08-07T18:07:56;2.85;;;1.52;;
24567;SDS011;12731;52.182;8.716;2022-08-07T18:10:46;3.07;;;1.60;;
24567;SDS011;12731;52.182;8.716;2022-08-07T18:16:11;2.03;;;1.70;;
24567;SDS011;12731;52.182;8.716;2022-08-07T18:19:08;2.88;;;1.60;;
24567;SDS011;12731;52.182;8.716;2022-08-07T18:24:58;2.40;;;1.70;;
24567;SDS011;12731;52.182;8.716;2022-08-07T18:30:23;2.13;;;1.60;;
24567;SDS011;12731;52.182;8.716;2022-08-07T18:36:33;3.30;;;1.60;;
24567;SDS011;12731;52.182;8.716;2022-08-07T18:39:05;2.75;;;1.67;;
24567;SDS011;12731;52.182;8.716;2022-08-07T18:42:02;2.67;;;1.63;;
24567;SDS011;12731;52.182;8.716;2022-08-07T18:44:42;2.22;;;1.60;;
24567;SDS011;12731;52.182;8.716;2022-08-07T18:47:40;3.22;;;1.70;;
24567;SDS011;12731;52.182;8.716;2022-08-07T18:50:37;3.22;;;1.70;;
24567;SDS011;12731;52.182;8.716;2022-08-07T18:58:52;2.40;;;1.70;;
24567;SDS011;12731;52.182;8.716;2022-08-07T19:02:26;3.58;;;1.75;;